createdAt,value
2023-07-08T00:00:17.195Z,10.03
2023-07-08T00:02:24.153Z,8.90
2023-07-08T00:04:27.066Z,8.30
2023-07-08T00:06:30.483Z,8.90
2023-07-08T00:08:33.537Z,8.93
2023-07-08T00:10:36.673Z,8.50
2023-07-08T00:12:39.853Z,10.03
2023-07-08T00:14:44.419Z,8.90
2023-07-08T00:16:47.540Z,9.10
2023-07-08T00:18:50.770Z,8.30
2023-07-08T00:20:53.923Z,9.40
2023-07-08T00:22:58.024Z,10.00
2023-07-08T00:25:01.076Z,9.53
2023-07-08T00:27:04.117Z,8.63
2023-07-08T00:29:10.732Z,8.90
2023-07-08T00:31:16.069Z,10.50
2023-07-08T00:33:19.144Z,9.53
2023-07-08T00:35:24.526Z,8.00
2023-07-08T00:37:30.798Z,9.27
2023-07-08T00:39:33.871Z,9.83
2023-07-08T00:41:41.132Z,10.97
2023-07-08T00:43:48.866Z,9.43
2023-07-08T00:46:02.607Z,8.87
2023-07-08T00:48:14.155Z,8.77
2023-07-08T00:50:17.485Z,9.30
2023-07-08T00:52:26.024Z,9.37
2023-07-08T00:54:30.075Z,9.03
2023-07-08T00:56:35.618Z,8.60
2023-07-08T00:58:41.434Z,7.53
2023-07-08T01:00:44.567Z,8.77
2023-07-08T01:02:56.518Z,8.10
2023-07-08T01:05:06.216Z,9.63
2023-07-08T01:07:09.371Z,8.60
2023-07-08T01:09:13.770Z,8.10
2023-07-08T01:11:16.809Z,7.67
2023-07-08T01:13:19.917Z,7.83
2023-07-08T01:15:26.248Z,8.60
2023-07-08T01:17:33.508Z,15.93
2023-07-08T01:19:37.157Z,11.50
2023-07-08T01:21:48.452Z,8.13
2023-07-08T01:23:51.441Z,9.77
2023-07-08T01:25:54.530Z,9.30
2023-07-08T01:27:59.258Z,9.17
2023-07-08T01:30:05.926Z,9.30
2023-07-08T01:32:11.845Z,9.20
2023-07-08T01:34:14.937Z,9.20
2023-07-08T01:36:18.033Z,8.30
2023-07-08T01:38:26.986Z,9.87
2023-07-08T01:40:31.875Z,8.27
2023-07-08T01:42:35.099Z,9.17
2023-07-08T01:44:38.845Z,8.73
2023-07-08T01:46:41.920Z,8.43
2023-07-08T01:48:49.097Z,8.70
2023-07-08T01:50:58.256Z,8.90
2023-07-08T01:53:02.750Z,8.57
2023-07-08T01:55:07.873Z,8.27
2023-07-08T01:57:11.009Z,8.23
2023-07-08T01:59:14.137Z,8.60
2023-07-08T02:01:17.324Z,7.73
2023-07-08T02:03:21.930Z,7.80
2023-07-08T02:05:25.392Z,8.23
2023-07-08T02:07:28.544Z,9.77
2023-07-08T02:09:31.636Z,8.33
2023-07-08T02:11:36.146Z,9.00
2023-07-08T02:13:39.317Z,8.97
2023-07-08T02:15:42.429Z,8.50
2023-07-08T02:17:45.571Z,8.13
2023-07-08T02:19:48.665Z,9.90
2023-07-08T02:21:53.925Z,8.37
2023-07-08T02:23:57.000Z,6.60
2023-07-08T02:26:00.051Z,8.07
2023-07-08T02:28:04.911Z,9.57
2023-07-08T02:30:09.234Z,8.23
2023-07-08T02:32:12.346Z,8.60
2023-07-08T02:34:16.917Z,8.17
2023-07-08T02:36:20.212Z,8.73
2023-07-08T02:38:23.302Z,7.10
2023-07-08T02:40:27.331Z,9.23
2023-07-08T02:42:31.099Z,8.50
2023-07-08T02:44:35.508Z,6.53
2023-07-08T02:46:38.603Z,9.33
2023-07-08T02:48:42.502Z,8.70
2023-07-08T02:50:45.577Z,11.00
2023-07-08T02:52:48.583Z,10.10
2023-07-08T02:54:51.596Z,9.23
2023-07-08T02:56:54.653Z,10.03
2023-07-08T02:58:57.974Z,8.10
2023-07-08T03:01:02.919Z,7.17
2023-07-08T03:03:06.892Z,8.53
2023-07-08T03:05:11.188Z,10.47
2023-07-08T03:07:15.974Z,8.37
2023-07-08T03:09:19.513Z,10.30
2023-07-08T03:11:23.238Z,7.70
2023-07-08T03:13:26.339Z,8.53
2023-07-08T03:15:30.740Z,9.23
2023-07-08T03:17:35.242Z,8.70
2023-07-08T03:19:38.480Z,9.97
2023-07-08T03:21:41.583Z,9.70
2023-07-08T03:23:44.776Z,8.70
2023-07-08T03:25:50.039Z,9.60
2023-07-08T03:27:53.873Z,11.27
2023-07-08T03:29:58.445Z,8.43
2023-07-08T03:32:01.543Z,7.93
2023-07-08T03:34:05.958Z,8.80
2023-07-08T03:36:13.580Z,10.47
2023-07-08T03:38:16.665Z,9.40
2023-07-08T03:40:18.868Z,9.00
2023-07-08T03:42:22.298Z,7.73
2023-07-08T03:44:25.807Z,8.60
2023-07-08T03:46:29.836Z,9.57
2023-07-08T03:48:32.939Z,8.13
2023-07-08T03:50:38.689Z,9.43
2023-07-08T03:52:41.740Z,9.63
2023-07-08T03:54:47.809Z,8.80
2023-07-08T03:56:51.025Z,9.63
2023-07-08T03:58:54.442Z,9.10
2023-07-08T04:00:58.801Z,7.57
2023-07-08T04:03:02.298Z,8.53
2023-07-08T04:05:05.799Z,8.60
2023-07-08T04:07:10.254Z,10.33
2023-07-08T04:09:13.454Z,8.37
2023-07-08T04:11:20.575Z,9.23
2023-07-08T04:13:23.999Z,10.20
2023-07-08T04:15:29.487Z,7.77
2023-07-08T04:17:32.703Z,8.07
2023-07-08T04:19:36.831Z,8.87
2023-07-08T04:21:39.046Z,9.57
2023-07-08T04:23:43.683Z,9.30
2023-07-08T04:25:47.037Z,7.83
2023-07-08T04:27:50.094Z,12.17
2023-07-08T04:29:53.145Z,10.70
2023-07-08T04:31:56.241Z,8.73
2023-07-08T04:33:59.331Z,9.93
2023-07-08T04:36:02.511Z,8.30
2023-07-08T04:38:10.299Z,9.37
2023-07-08T04:40:19.702Z,9.37
2023-07-08T04:42:22.961Z,7.57
2023-07-08T04:44:26.132Z,8.53
2023-07-08T04:46:38.311Z,10.03
2023-07-08T04:48:41.557Z,9.40
2023-07-08T04:50:46.560Z,8.87
2023-07-08T04:52:50.916Z,10.13
2023-07-08T04:54:54.170Z,8.50
2023-07-08T04:56:58.662Z,8.50
2023-07-08T04:59:02.728Z,8.73
2023-07-08T05:01:06.017Z,7.60
2023-07-08T05:03:09.185Z,9.50
2023-07-08T05:05:11.274Z,10.37
2023-07-08T05:07:14.375Z,8.60
2023-07-08T05:09:18.057Z,8.87
2023-07-08T05:11:21.156Z,7.00
2023-07-08T05:13:25.848Z,9.50
2023-07-08T05:15:29.059Z,8.20
2023-07-08T05:17:32.162Z,7.40
2023-07-08T05:19:35.203Z,8.27
2023-07-08T05:21:39.495Z,9.90
2023-07-08T05:23:42.886Z,7.60
2023-07-08T05:25:45.980Z,9.17
2023-07-08T05:27:49.557Z,9.10
2023-07-08T05:29:54.175Z,8.97
2023-07-08T05:31:57.764Z,7.53
2023-07-08T05:34:00.790Z,10.17
2023-07-08T05:36:03.998Z,7.47
2023-07-08T05:38:07.070Z,8.00
2023-07-08T05:40:11.065Z,8.97
2023-07-08T05:42:14.182Z,7.33
2023-07-08T05:44:17.168Z,8.50
2023-07-08T05:46:21.694Z,8.70
2023-07-08T05:48:24.733Z,6.87
2023-07-08T05:50:27.825Z,8.40
2023-07-08T05:52:30.995Z,8.13
2023-07-08T05:54:34.072Z,7.63
2023-07-08T05:56:37.262Z,7.97
2023-07-08T05:58:40.375Z,6.93
2023-07-08T06:00:43.607Z,6.73
2023-07-08T06:02:48.190Z,7.37
2023-07-08T06:04:51.345Z,6.23
2023-07-08T06:06:54.581Z,8.90
2023-07-08T06:08:57.641Z,7.60
2023-07-08T06:11:01.071Z,7.47
2023-07-08T06:13:04.336Z,8.57
2023-07-08T06:15:08.624Z,7.70
2023-07-08T06:17:11.787Z,7.40
2023-07-08T06:19:18.195Z,8.03
2023-07-08T06:21:21.357Z,8.30
2023-07-08T06:23:23.991Z,6.33
2023-07-08T06:25:27.082Z,8.10
2023-07-08T06:27:30.206Z,9.60
2023-07-08T06:29:33.420Z,6.60
2023-07-08T06:31:36.750Z,6.87
2023-07-08T06:33:39.779Z,7.77
2023-07-08T06:35:44.806Z,7.73
2023-07-08T06:37:47.849Z,7.90
2023-07-08T06:39:50.928Z,7.40
2023-07-08T06:41:53.062Z,6.97
2023-07-08T06:44:01.532Z,7.00
2023-07-08T06:46:08.487Z,7.90
2023-07-08T06:48:11.669Z,7.30
2023-07-08T06:50:14.782Z,7.30
2023-07-08T06:52:19.327Z,6.63
2023-07-08T06:54:22.471Z,6.53
2023-07-08T06:56:25.696Z,7.17
2023-07-08T06:58:28.703Z,9.23
2023-07-08T07:00:31.942Z,6.97
2023-07-08T07:02:35.599Z,8.77
2023-07-08T07:04:38.939Z,6.70
2023-07-08T07:06:41.990Z,7.33
2023-07-08T07:08:46.576Z,7.80
2023-07-08T07:10:49.707Z,8.97
2023-07-08T07:12:52.737Z,7.10
2023-07-08T07:14:56.028Z,6.30
2023-07-08T07:17:08.422Z,6.80
2023-07-08T07:19:12.430Z,7.10
2023-07-08T07:21:15.617Z,8.50
2023-07-08T07:23:18.837Z,8.40
2023-07-08T07:25:23.472Z,6.67
2023-07-08T07:27:26.568Z,6.60
2023-07-08T07:29:29.836Z,8.27
2023-07-08T07:31:33.570Z,7.30
2023-07-08T07:33:36.809Z,7.63
2023-07-08T07:35:44.459Z,7.97
2023-07-08T07:37:47.642Z,7.67
2023-07-08T07:39:50.818Z,6.97
2023-07-08T07:41:55.223Z,7.93
2023-07-08T07:43:58.274Z,6.63
2023-07-08T07:46:01.722Z,6.77
2023-07-08T07:48:06.138Z,7.73
2023-07-08T07:50:10.684Z,6.87
2023-07-08T07:52:13.948Z,7.17
2023-07-08T07:54:17.121Z,5.93
2023-07-08T07:56:20.166Z,6.37
2023-07-08T07:58:27.686Z,6.60
2023-07-08T08:00:31.210Z,6.30
2023-07-08T08:02:34.375Z,6.60
2023-07-08T08:04:37.579Z,7.87
2023-07-08T08:06:40.898Z,8.50
2023-07-08T08:08:43.995Z,7.17
2023-07-08T08:10:47.329Z,6.00
2023-07-08T08:12:53.984Z,6.53
2023-07-08T08:14:58.827Z,10.20
2023-07-08T08:17:02.080Z,6.67
2023-07-08T08:19:07.923Z,5.87
2023-07-08T08:21:12.036Z,6.03
2023-07-08T08:23:15.153Z,6.37
2023-07-08T08:25:22.200Z,5.50
2023-07-08T08:27:25.304Z,6.30
2023-07-08T08:29:28.612Z,7.47
2023-07-08T08:31:33.435Z,6.00
2023-07-08T08:33:36.472Z,6.87
2023-07-08T08:35:39.540Z,6.60
2023-07-08T08:37:42.682Z,7.40
2023-07-08T08:39:45.954Z,5.97
2023-07-08T08:41:49.245Z,7.80
2023-07-08T08:43:52.966Z,5.90
2023-07-08T08:46:00.362Z,7.07
2023-07-08T08:48:08.048Z,6.47
2023-07-08T08:50:25.886Z,6.93
2023-07-08T08:52:29.302Z,7.37
2023-07-08T08:54:32.991Z,6.00
2023-07-08T08:56:41.227Z,5.37
2023-07-08T08:58:47.081Z,7.20
2023-07-08T09:00:56.481Z,5.80
2023-07-08T09:03:03.575Z,5.60
2023-07-08T09:05:10.989Z,8.47
2023-07-08T09:07:16.960Z,6.70
2023-07-08T09:09:35.304Z,5.43
2023-07-08T09:11:43.087Z,7.37
2023-07-08T09:13:46.402Z,5.87
2023-07-08T09:15:50.972Z,5.30
2023-07-08T09:17:57.576Z,6.67
2023-07-08T09:20:08.114Z,5.67
2023-07-08T09:22:17.038Z,4.73
2023-07-08T09:24:23.079Z,5.50
2023-07-08T09:26:26.866Z,5.43
2023-07-08T09:28:39.750Z,4.80
2023-07-08T09:30:42.911Z,5.37
2023-07-08T09:32:46.125Z,4.60
2023-07-08T09:34:52.453Z,6.13
2023-07-08T09:36:55.568Z,5.10
2023-07-08T09:38:59.999Z,5.90
2023-07-08T09:41:03.357Z,5.70
2023-07-08T09:43:20.157Z,5.90
2023-07-08T09:45:25.270Z,4.87
2023-07-08T09:47:32.006Z,5.37
2023-07-08T09:49:37.173Z,5.73
2023-07-08T09:51:39.481Z,5.40
2023-07-08T09:53:42.669Z,4.33
2023-07-08T09:55:48.251Z,5.37
2023-07-08T09:57:52.933Z,5.53
2023-07-08T09:59:59.677Z,5.70
2023-07-08T10:02:04.799Z,9.80
2023-07-08T10:04:08.956Z,5.73
2023-07-08T10:06:19.529Z,6.20
2023-07-08T10:08:24.378Z,4.33
2023-07-08T10:10:31.368Z,6.27
2023-07-08T10:12:37.528Z,5.60
2023-07-08T10:14:45.398Z,4.90
2023-07-08T10:16:48.703Z,5.20
2023-07-08T10:18:51.891Z,4.90
2023-07-08T10:21:00.525Z,7.60
2023-07-08T10:23:11.062Z,5.73
2023-07-08T10:25:22.646Z,5.07
2023-07-08T10:27:30.611Z,5.63
2023-07-08T10:29:40.893Z,4.47
2023-07-08T10:31:49.350Z,6.20
2023-07-08T10:34:16.636Z,4.57
2023-07-08T10:36:26.065Z,9.50
2023-07-08T10:38:41.673Z,4.83
2023-07-08T10:40:50.238Z,4.70
2023-07-08T10:43:02.193Z,4.43
2023-07-08T10:45:12.398Z,4.70
2023-07-08T10:47:29.815Z,5.33
2023-07-08T10:49:52.901Z,5.00
2023-07-08T10:52:06.382Z,3.90
2023-07-08T10:54:26.931Z,5.33
2023-07-08T10:56:38.397Z,4.60
2023-07-08T10:58:55.316Z,4.70
2023-07-08T11:01:14.839Z,4.40
2023-07-08T11:03:40.822Z,5.20
2023-07-08T11:05:47.073Z,4.53
2023-07-08T11:07:53.415Z,3.87
2023-07-08T11:09:59.424Z,4.73
2023-07-08T11:12:05.539Z,4.70
2023-07-08T11:14:12.462Z,4.20
2023-07-08T11:16:22.022Z,6.20
2023-07-08T11:18:30.437Z,4.10
2023-07-08T11:20:39.557Z,6.27
2023-07-08T11:22:47.468Z,4.70
2023-07-08T11:24:52.400Z,4.80
2023-07-08T11:26:58.678Z,5.87
2023-07-08T11:29:03.034Z,6.13
2023-07-08T11:31:07.105Z,4.23
2023-07-08T11:33:15.633Z,4.37
2023-07-08T11:35:21.897Z,4.00
2023-07-08T11:37:26.790Z,4.63
2023-07-08T11:39:34.844Z,8.80
2023-07-08T11:41:38.041Z,3.87
2023-07-08T11:43:47.460Z,4.90
2023-07-08T11:45:51.091Z,4.93
2023-07-08T11:47:55.332Z,3.60
2023-07-08T11:49:59.896Z,3.73
2023-07-08T11:52:04.660Z,4.53
2023-07-08T11:54:15.354Z,3.80
2023-07-08T11:56:24.217Z,3.80
2023-07-08T11:58:29.260Z,3.60
2023-07-08T12:00:34.687Z,2.93
2023-07-08T12:02:51.030Z,5.43
2023-07-08T12:04:59.933Z,4.27
2023-07-08T12:07:24.409Z,3.37
2023-07-08T12:09:31.343Z,4.80
2023-07-08T12:11:36.560Z,5.43
2023-07-08T12:13:41.135Z,3.47
2023-07-08T12:15:43.366Z,5.10
2023-07-08T12:17:47.668Z,3.60
2023-07-08T12:19:50.601Z,4.70
2023-07-08T12:21:55.315Z,5.70
2023-07-08T12:24:05.425Z,4.03
2023-07-08T12:26:10.882Z,3.03
2023-07-08T12:28:14.735Z,2.80
2023-07-08T12:30:18.623Z,3.53
2023-07-08T12:32:26.595Z,3.40
2023-07-08T12:34:30.813Z,3.80
2023-07-08T12:36:35.921Z,2.07
2023-07-08T12:38:42.270Z,3.30
2023-07-08T12:40:45.805Z,3.17
2023-07-08T12:42:49.126Z,3.30
2023-07-08T12:44:52.211Z,4.13
2023-07-08T12:46:56.447Z,4.60
2023-07-08T12:48:59.618Z,2.47
2023-07-08T12:51:02.960Z,2.90
2023-07-08T12:53:10.564Z,5.93
2023-07-08T12:55:16.001Z,3.17
2023-07-08T12:57:19.865Z,4.20
2023-07-08T12:59:25.207Z,2.50
2023-07-08T13:01:32.177Z,2.17
2023-07-08T13:03:37.971Z,3.07
2023-07-08T13:05:42.257Z,2.03
2023-07-08T13:07:45.836Z,2.73
2023-07-08T13:09:50.640Z,3.90
2023-07-08T13:11:57.083Z,2.57
2023-07-08T13:14:03.564Z,2.73
2023-07-08T13:16:07.194Z,2.23
2023-07-08T13:18:16.833Z,2.53
2023-07-08T13:20:20.925Z,2.50
2023-07-08T13:22:24.826Z,2.33
2023-07-08T13:24:32.531Z,2.47
2023-07-08T13:26:35.634Z,2.87
2023-07-08T13:28:41.468Z,3.22
2023-07-08T13:30:53.696Z,3.43
2023-07-08T13:32:57.783Z,2.40
2023-07-08T13:35:00.979Z,3.27
2023-07-08T13:37:04.147Z,2.23
2023-07-08T13:39:08.582Z,2.37
2023-07-08T13:41:13.563Z,3.20
2023-07-08T13:43:16.825Z,2.50
2023-07-08T13:45:25.584Z,2.50
2023-07-08T13:47:30.550Z,2.63
2023-07-08T13:49:42.398Z,2.30
2023-07-08T13:51:46.862Z,3.40
2023-07-08T13:53:52.046Z,5.50
2023-07-08T13:56:03.084Z,4.63
2023-07-08T13:58:11.531Z,2.70
2023-07-08T14:00:15.884Z,2.50
2023-07-08T14:02:23.418Z,2.20
2023-07-08T14:04:35.417Z,2.63
2023-07-08T14:06:40.637Z,2.57
2023-07-08T14:08:43.753Z,3.40
2023-07-08T14:10:45.927Z,2.80
2023-07-08T14:12:49.003Z,2.80
2023-07-08T14:14:52.497Z,3.47
2023-07-08T14:16:56.936Z,2.87
2023-07-08T14:19:04.595Z,3.47
2023-07-08T14:21:07.664Z,3.43
2023-07-08T14:23:12.108Z,3.97
2023-07-08T14:25:16.545Z,4.63
2023-07-08T14:27:20.234Z,5.73
2023-07-08T14:29:23.568Z,2.70
2023-07-08T14:31:27.963Z,2.00
2023-07-08T14:33:31.279Z,2.83
2023-07-08T14:35:35.757Z,4.53
2023-07-08T14:37:39.024Z,3.20
2023-07-08T14:39:42.205Z,2.97
2023-07-08T14:41:46.691Z,2.47
2023-07-08T14:43:49.790Z,2.90
2023-07-08T14:45:56.000Z,2.30
2023-07-08T14:47:59.155Z,3.00
2023-07-08T14:50:02.612Z,2.70
2023-07-08T14:52:08.361Z,2.70
2023-07-08T14:54:11.471Z,3.50
2023-07-08T14:56:17.370Z,3.30
2023-07-08T14:58:24.250Z,3.03
2023-07-08T15:00:27.364Z,4.13
2023-07-08T15:02:30.434Z,3.70
2023-07-08T15:04:33.618Z,3.40
2023-07-08T15:06:36.671Z,2.80
2023-07-08T15:08:41.193Z,2.90
2023-07-08T15:10:48.344Z,3.73
2023-07-08T15:12:51.738Z,2.40
2023-07-08T15:14:54.819Z,2.87
2023-07-08T15:16:57.957Z,3.00
2023-07-08T15:19:01.157Z,2.60
2023-07-08T15:21:04.785Z,2.13
2023-07-08T15:23:09.043Z,2.90
2023-07-08T15:25:15.195Z,2.83
2023-07-08T15:27:21.044Z,3.80
2023-07-08T15:29:25.647Z,2.90
2023-07-08T15:31:30.743Z,3.50
2023-07-08T15:33:33.876Z,2.30
2023-07-08T15:35:37.007Z,2.27
2023-07-08T15:37:40.260Z,3.27
2023-07-08T15:39:43.532Z,2.87
2023-07-08T15:41:48.009Z,2.67
2023-07-08T15:43:51.451Z,3.07
2023-07-08T15:45:55.273Z,2.73
2023-07-08T15:47:58.838Z,2.87
2023-07-08T15:50:01.990Z,3.90
2023-07-08T15:52:06.524Z,3.47
2023-07-08T15:54:09.671Z,3.00
2023-07-08T15:56:14.648Z,2.27
2023-07-08T15:58:27.401Z,3.23
2023-07-08T16:00:33.455Z,2.90
2023-07-08T16:02:38.133Z,3.70
2023-07-08T16:04:41.354Z,4.30
2023-07-08T16:06:44.499Z,2.70
2023-07-08T16:08:48.026Z,4.23
2023-07-08T16:10:53.857Z,6.20
2023-07-08T16:12:58.471Z,6.43
2023-07-08T16:15:03.572Z,3.00
2023-07-08T16:17:10.438Z,2.83
2023-07-08T16:19:14.764Z,3.70
2023-07-08T16:21:18.118Z,3.53
2023-07-08T16:23:22.206Z,2.53
2023-07-08T16:25:30.378Z,3.53
2023-07-08T16:27:33.554Z,2.77
2023-07-08T16:29:36.666Z,4.00
2023-07-08T16:31:41.204Z,3.03
2023-07-08T16:33:44.468Z,3.50
2023-07-08T16:35:47.618Z,3.50
2023-07-08T16:37:52.125Z,5.03
2023-07-08T16:39:56.836Z,2.77
2023-07-08T16:41:59.900Z,2.77
2023-07-08T16:44:03.218Z,3.27
2023-07-08T16:46:06.447Z,3.93
2023-07-08T16:48:11.096Z,3.40
2023-07-08T16:50:15.096Z,3.07
2023-07-08T16:52:19.121Z,2.43
2023-07-08T16:54:25.233Z,4.30
2023-07-08T16:56:28.378Z,3.10
2023-07-08T16:58:31.566Z,5.37
2023-07-08T17:00:34.941Z,3.60
2023-07-08T17:02:38.337Z,2.90
2023-07-08T17:04:43.126Z,3.37
2023-07-08T17:06:47.019Z,4.50
2023-07-08T17:08:50.403Z,4.00
2023-07-08T17:10:54.800Z,3.43
2023-07-08T17:12:57.892Z,4.10
2023-07-08T17:15:00.958Z,4.33
2023-07-08T17:17:05.105Z,3.83
2023-07-08T17:19:08.203Z,3.30
2023-07-08T17:21:15.645Z,4.50
2023-07-08T17:23:20.245Z,3.80
2023-07-08T17:25:25.516Z,3.33
2023-07-08T17:27:28.499Z,3.07
2023-07-08T17:29:31.626Z,3.20
2023-07-08T17:31:47.179Z,4.03
2023-07-08T17:33:57.028Z,4.03
2023-07-08T17:36:00.206Z,2.67
2023-07-08T17:38:04.629Z,2.80
2023-07-08T17:40:14.778Z,5.27
2023-07-08T17:42:17.868Z,3.40
2023-07-08T17:44:21.474Z,2.73
2023-07-08T17:46:27.379Z,3.20
2023-07-08T17:48:30.719Z,4.03
2023-07-08T17:50:33.858Z,5.07
2023-07-08T17:52:36.996Z,3.87
2023-07-08T17:54:41.454Z,4.83
2023-07-08T17:56:47.477Z,5.30
2023-07-08T17:58:51.763Z,3.93
2023-07-08T18:00:54.900Z,3.03
2023-07-08T18:02:58.607Z,5.60
2023-07-08T18:05:01.652Z,5.30
2023-07-08T18:07:05.130Z,5.77
2023-07-08T18:09:07.686Z,3.80
2023-07-08T18:11:13.983Z,3.93
2023-07-08T18:13:20.870Z,5.00
2023-07-08T18:15:26.177Z,4.37
2023-07-08T18:17:29.369Z,3.90
2023-07-08T18:19:32.473Z,3.60
2023-07-08T18:21:35.637Z,5.13
2023-07-08T18:23:40.095Z,3.33
2023-07-08T18:25:43.244Z,3.00
2023-07-08T18:27:48.445Z,3.60
2023-07-08T18:29:51.545Z,4.90
2023-07-08T18:31:54.770Z,4.97
2023-07-08T18:33:57.981Z,5.70
2023-07-08T18:36:01.385Z,4.90
2023-07-08T18:38:04.696Z,4.33
2023-07-08T18:40:10.083Z,5.10
2023-07-08T18:42:13.283Z,4.57
2023-07-08T18:44:26.438Z,4.80
2023-07-08T18:46:29.466Z,4.60
2023-07-08T18:48:32.560Z,3.87
2023-07-08T18:50:36.164Z,4.00
2023-07-08T18:52:38.658Z,4.40
2023-07-08T18:54:41.736Z,6.10
2023-07-08T18:56:45.060Z,6.17
2023-07-08T18:58:48.682Z,4.50
2023-07-08T19:00:53.600Z,5.00
2023-07-08T19:03:00.119Z,2.77
2023-07-08T19:05:02.392Z,6.53
2023-07-08T19:07:07.309Z,5.57
2023-07-08T19:09:10.766Z,4.50
2023-07-08T19:11:18.708Z,4.87
2023-07-08T19:13:23.410Z,3.80
2023-07-08T19:15:28.688Z,3.77
2023-07-08T19:17:33.189Z,6.70
2023-07-08T19:19:36.602Z,4.63
2023-07-08T19:21:40.459Z,4.43
2023-07-08T19:23:46.680Z,3.27
2023-07-08T19:25:50.050Z,4.20
2023-07-08T19:27:54.180Z,4.83
2023-07-08T19:29:57.393Z,5.77
2023-07-08T19:32:00.593Z,5.97
2023-07-08T19:34:06.945Z,4.17
2023-07-08T19:36:10.538Z,3.80
2023-07-08T19:38:16.068Z,6.57
2023-07-08T19:40:22.081Z,3.67
2023-07-08T19:42:26.946Z,5.77
2023-07-08T19:44:30.148Z,4.23
2023-07-08T19:46:32.493Z,6.30
2023-07-08T19:48:36.065Z,3.40
2023-07-08T19:50:40.923Z,5.43
2023-07-08T19:52:44.510Z,5.60
2023-07-08T19:54:47.616Z,4.40
2023-07-08T19:56:50.703Z,4.47
2023-07-08T19:58:53.803Z,6.20
2023-07-08T20:00:56.911Z,5.47
2023-07-08T20:03:00.698Z,4.60
2023-07-08T20:05:03.848Z,4.47
2023-07-08T20:07:13.320Z,5.37
2023-07-08T20:09:16.823Z,7.10
2023-07-08T20:11:19.474Z,5.83
2023-07-08T20:13:23.095Z,5.40
2023-07-08T20:15:27.598Z,5.43
2023-07-08T20:17:30.716Z,4.47
2023-07-08T20:19:33.921Z,4.20
2023-07-08T20:21:37.033Z,4.33
2023-07-08T20:23:41.755Z,5.80
2023-07-08T20:25:46.280Z,5.20
2023-07-08T20:27:50.127Z,4.87
2023-07-08T20:29:53.191Z,4.50
2023-07-08T20:31:56.293Z,3.43
2023-07-08T20:33:59.689Z,5.20
2023-07-08T20:36:03.111Z,3.77
2023-07-08T20:38:07.238Z,4.20
2023-07-08T20:40:20.937Z,5.17
2023-07-08T20:42:24.035Z,4.70
2023-07-08T20:44:27.083Z,3.87
2023-07-08T20:46:30.618Z,4.80
2023-07-08T20:48:33.758Z,5.57
2023-07-08T20:50:36.906Z,4.43
2023-07-08T20:52:40.005Z,6.07
2023-07-08T20:54:43.082Z,6.87
2023-07-08T20:56:47.598Z,5.73
2023-07-08T20:58:50.656Z,4.63
2023-07-08T21:00:54.432Z,3.97
2023-07-08T21:02:58.472Z,5.10
2023-07-08T21:05:02.492Z,5.77
2023-07-08T21:07:06.248Z,5.40
2023-07-08T21:09:12.256Z,5.10
2023-07-08T21:11:15.388Z,4.83
2023-07-08T21:13:20.295Z,4.33
2023-07-08T21:15:35.029Z,5.17
2023-07-08T21:17:40.204Z,4.03
2023-07-08T21:19:43.510Z,5.50
2023-07-08T21:21:46.576Z,6.13
2023-07-08T21:23:50.139Z,5.53
2023-07-08T21:25:54.682Z,4.90
2023-07-08T21:27:57.757Z,7.50
2023-07-08T21:30:02.262Z,7.00
2023-07-08T21:32:06.069Z,5.30
2023-07-08T21:34:10.046Z,4.27
2023-07-08T21:36:23.391Z,3.40
2023-07-08T21:38:27.565Z,4.53
2023-07-08T21:40:35.757Z,3.57
2023-07-08T21:42:38.835Z,6.17
2023-07-08T21:44:42.026Z,3.97
2023-07-08T21:46:46.923Z,4.60
2023-07-08T21:48:50.294Z,4.10
2023-07-08T21:50:55.746Z,4.67
2023-07-08T21:53:01.527Z,5.57
2023-07-08T21:55:06.417Z,5.10
2023-07-08T21:57:14.901Z,4.10
2023-07-08T21:59:19.213Z,4.70
2023-07-08T22:01:24.647Z,4.10
2023-07-08T22:03:29.905Z,5.03
2023-07-08T22:05:33.069Z,9.30
2023-07-08T22:07:36.648Z,6.13
2023-07-08T22:09:40.450Z,3.90
2023-07-08T22:11:47.452Z,4.30
2023-07-08T22:13:50.838Z,9.40
2023-07-08T22:15:54.979Z,6.60
2023-07-08T22:18:00.124Z,6.13
2023-07-08T22:20:07.299Z,5.93
2023-07-08T22:22:11.850Z,4.67
2023-07-08T22:24:14.930Z,4.80
2023-07-08T22:26:18.254Z,6.07
2023-07-08T22:28:21.821Z,6.63
2023-07-08T22:30:25.329Z,5.43
2023-07-08T22:32:28.623Z,4.10
2023-07-08T22:34:31.732Z,4.77
2023-07-08T22:36:36.722Z,4.67
2023-07-08T22:38:39.774Z,4.30
2023-07-08T22:40:44.204Z,4.70
2023-07-08T22:42:46.303Z,7.60
2023-07-08T22:44:49.385Z,5.23
2023-07-08T22:46:52.465Z,5.60
2023-07-08T22:48:58.776Z,4.27
2023-07-08T22:51:02.986Z,5.53
2023-07-08T22:53:09.844Z,4.60
2023-07-08T22:55:15.760Z,4.20
2023-07-08T22:57:18.775Z,5.53
2023-07-08T22:59:21.927Z,5.93
2023-07-08T23:01:24.997Z,4.67
2023-07-08T23:03:28.286Z,5.50
2023-07-08T23:05:39.911Z,7.20
2023-07-08T23:07:43.413Z,5.80
2023-07-08T23:09:47.923Z,4.43
2023-07-08T23:11:50.120Z,5.00
2023-07-08T23:13:53.363Z,6.20
2023-07-08T23:15:57.146Z,5.83
2023-07-08T23:18:00.439Z,4.87
2023-07-08T23:20:03.805Z,5.70
2023-07-08T23:22:09.936Z,5.60
2023-07-08T23:24:13.159Z,7.80
2023-07-08T23:26:19.373Z,6.30
2023-07-08T23:28:22.455Z,7.60
2023-07-08T23:30:25.748Z,7.47
2023-07-08T23:32:28.888Z,5.30
2023-07-08T23:34:32.025Z,6.00
2023-07-08T23:36:37.768Z,7.10
2023-07-08T23:38:40.779Z,6.17
2023-07-08T23:40:44.608Z,5.40
2023-07-08T23:42:49.029Z,3.93
2023-07-08T23:44:51.215Z,4.93
2023-07-08T23:46:56.801Z,4.30
2023-07-08T23:49:02.636Z,4.40
2023-07-08T23:51:05.646Z,5.30
2023-07-08T23:53:09.637Z,5.20
2023-07-08T23:55:13.673Z,5.80
2023-07-08T23:57:18.897Z,4.50
2023-07-08T23:59:24.317Z,5.73
